Date,TemperatureHighF,TemperatureAvgF,TemperatureLowF,DewpointHighF,DewpointAvgF,DewpointLowF,HumidityHigh,HumidityAvg,HumidityLow,PressureMaxIn,PressureMinIn,WindSpeedMaxMPH,WindSpeedAvgMPH,GustSpeedMaxMPH,PrecipitationSumIn
2013-1-1,41.2,34.2,28.4,33.0,29.4,25.7,93,83,65,30.40,30.26,3,1,5,0.00
2013-1-2,45.5,35.7,28.2,31.9,25.5,18.7,94,69,41,30.26,30.10,2,0,3,0.00
2013-1-3,45.4,36.2,27.6,34.0,24.0,18.0,90,63,36,30.11,30.00,4,1,11,0.12
2013-1-4,48.8,43.4,36.6,45.4,40.6,34.5,97,90,79,30.22,30.06,3,0,3,0.08
2013-1-5,44.2,42.3,39.9,39.5,35.1,30.2,94,76,61,30.11,30.02,6,1,7,0.07
2013-1-6,45.7,42.2,38.6,40.8,38.6,37.0,94,87,78,30.09,29.90,5,1,7,0.06
2013-1-7,50.5,46.5,40.6,47.4,42.9,38.7,94,87,78,30.07,29.75,16,6,22,0.05
2013-1-8,54.2,47.8,41.6,48.3,43.7,38.5,96,86,73,30.07,29.64,12,4,17,0.28
2013-1-9,50.1,42.5,38.0,48.2,38.5,32.9,95,86,80,29.86,29.64,11,4,13,0.90
2013-1-10,38.8,36.8,31.5,35.3,33.4,30.2,96,87,82,30.02,29.85,3,0,3,0.01
2013-1-11,37.0,31.4,27.5,31.8,27.7,24.8,97,87,67,30.24,30.03,1,0,2,0.00
2013-1-12,36.8,29.8,25.1,29.0,24.5,22.8,92,81,59,30.35,30.23,3,0,3,0.01
2013-1-13,36.3,29.1,22.7,26.0,23.6,20.2,91,80,63,30.40,30.35,2,0,2,0.00
2013-1-14,38.0,32.9,28.5,30.2,27.1,24.8,87,79,64,30.47,30.39,1,0,2,0.00
2013-1-15,44.6,36.8,31.0,33.4,30.7,28.4,91,79,63,30.60,30.47,3,1,7,0.00
2013-1-16,40.9,32.5,26.9,33.6,29.5,25.2,96,89,74,30.59,30.42,1,0,2,0.00
2013-1-17,35.3,31.3,27.5,34.3,30.3,26.5,97,96,92,30.44,30.21,2,0,2,0.01
2013-1-18,36.3,32.5,29.1,35.8,32.0,28.6,98,98,97,30.25,30.18,4,0,4,0.00
2013-1-19,33.4,31.3,29.5,32.6,30.7,29.0,98,97,96,30.30,30.25,2,0,2,0.00
2013-1-20,36.5,32.1,29.1,36.0,31.6,28.6,98,98,97,30.30,30.17,3,0,4,0.00
2013-1-21,34.3,31.9,29.1,33.8,31.3,28.6,98,98,97,30.19,30.05,2,0,3,0.01
2013-1-22,38.6,33.0,28.4,34.8,31.5,27.7,98,94,84,30.06,29.82,3,0,4,0.00
2013-1-23,43.3,40.7,36.2,40.3,35.2,27.4,94,81,57,30.02,29.75,6,2,7,0.16
2013-1-24,46.2,41.1,35.5,39.9,37.0,33.0,94,86,66,30.12,29.96,6,1,8,0.14
2013-1-25,52.8,46.1,41.9,45.9,42.4,38.8,97,87,69,29.97,29.84,3,0,3,0.14
2013-1-26,47.4,42.7,39.2,39.6,37.8,36.2,94,83,68,29.92,29.79,13,4,17,0.05
2013-1-27,42.3,40.6,39.5,38.6,37.6,36.7,92,89,84,29.97,29.90,5,4,8,0.09
2013-1-28,42.2,41.1,39.2,40.9,38.9,36.8,95,92,86,29.99,29.92,5,3,10,0.31
2013-1-29,46.8,44.8,41.9,45.1,42.9,40.3,96,93,88,30.25,30.01,8,3,12,0.18
2013-1-30,48.0,46.8,44.5,46.9,45.4,43.2,97,95,92,30.29,30.23,7,4,13,0.09
2013-1-31,51.0,47.8,46.1,46.0,45.0,43.6,97,90,79,30.30,30.20,6,2,13,0.10
2013-2-1,50.5,46.6,43.1,45.6,44.0,40.9,97,91,77,30.31,30.23,4,1,8,0.01
2013-2-2,42.2,39.8,36.8,41.1,38.5,35.8,98,95,89,30.27,30.17,4,1,8,0.00
2013-2-3,47.6,42.7,35.9,43.5,40.4,34.9,96,92,81,30.21,30.12,5,1,7,0.06
2013-2-4,52.5,46.9,43.8,43.0,41.5,40.8,92,82,65,30.12,29.81,5,2,11,0.01
2013-2-5,49.6,46.2,44.2,43.5,41.5,39.1,93,84,71,29.84,29.75,8,4,14,0.15
2013-2-6,51.4,45.9,42.8,41.6,39.7,37.4,89,79,62,29.97,29.70,6,2,13,0.05
2013-2-7,49.9,44.5,38.8,41.1,35.7,32.7,89,72,52,30.07,29.70,9,2,13,0.05
2013-2-8,45.5,40.4,35.9,37.1,35.0,33.5,92,81,69,30.21,30.10,2,0,2,0.00
2013-2-9,46.4,42.0,38.8,40.0,38.1,35.7,94,86,71,30.23,30.17,1,0,2,0.00
2013-2-10,46.8,42.0,35.9,40.5,37.1,34.6,97,83,66,30.28,30.23,3,0,6,0.00
2013-2-11,48.2,43.6,38.8,41.3,38.1,36.4,91,81,67,30.26,30.23,2,0,5,0.00
2013-2-12,50.8,47.7,44.5,45.2,44.1,41.7,96,88,77,30.30,30.21,12,4,18,0.02
2013-2-13,48.5,46.7,44.3,45.1,41.3,38.8,93,82,71,30.39,30.21,10,3,11,0.03
2013-2-14,50.4,46.3,42.9,44.8,42.1,39.1,92,85,75,30.45,30.40,2,0,5,0.01
2013-2-15,55.0,44.3,39.2,44.6,41.4,38.4,98,90,66,30.45,30.11,3,0,3,0.01
2013-2-16,52.5,45.7,39.3,42.4,39.7,35.6,97,80,61,30.10,30.03,19,6,20,0.00
2013-2-17,48.9,43.3,40.8,36.7,34.9,31.1,81,72,50,30.15,30.03,5,1,5,0.00
2013-2-18,47.1,42.3,38.0,37.9,35.8,33.5,90,78,64,30.02,29.67,3,0,7,0.00
2013-2-19,52.9,42.9,37.9,36.6,34.5,30.6,88,73,48,29.90,29.64,7,2,7,0.00
2013-2-20,45.7,39.2,34.0,39.2,34.9,31.4,94,85,67,29.96,29.89,5,0,5,0.07
2013-2-21,43.3,40.3,38.5,38.8,37.6,36.1,93,90,83,29.98,29.92,8,3,13,0.01
2013-2-22,44.9,42.7,39.5,41.4,38.3,33.6,93,84,74,29.97,29.63,19,9,22,0.32
2013-2-23,50.4,43.6,39.3,36.5,35.1,33.4,84,73,55,30.28,29.81,8,2,11,0.00
2013-2-24,47.9,44.5,40.9,37.2,34.5,32.1,79,68,57,30.28,29.87,8,3,12,0.00
2013-2-25,51.0,43.9,40.3,38.9,35.4,28.7,88,73,42,30.21,29.81,19,10,21,0.08
2013-2-26,48.8,44.1,40.3,34.6,32.6,29.7,78,65,50,30.26,30.10,5,2,8,0.00
2013-2-27,50.8,44.7,40.1,43.4,39.9,36.4,96,84,67,30.21,30.11,6,1,6,0.25
2013-2-28,52.5,47.1,42.5,50.2,45.6,41.0,97,94,90,30.23,30.09,7,2,10,0.20
2013-3-1,60.5,54.9,52.0,50.6,49.0,48.2,94,81,68,30.27,30.19,11,5,17,0.05
2013-3-2,57.0,50.2,41.3,48.4,43.9,38.0,92,79,64,30.19,29.97,14,4,14,0.13
2013-3-3,50.4,42.9,36.8,37.6,34.0,30.7,87,72,49,30.19,30.11,4,2,7,0.00
2013-3-4,55.9,43.6,30.3,34.0,26.7,20.4,93,57,29,30.20,29.83,7,2,8,0.00
2013-3-5,51.7,45.7,41.2,39.1,33.0,20.7,85,62,35,29.82,29.64,3,0,5,0.00
2013-3-6,44.2,42.2,40.3,41.2,39.0,37.0,94,88,82,29.80,29.48,7,3,7,0.44
2013-3-7,54.8,45.5,39.9,43.1,40.2,37.4,96,83,55,29.99,29.81,5,1,9,0.21
2013-3-8,53.3,43.0,34.3,40.2,37.7,33.5,98,83,58,30.13,29.99,6,1,10,0.00
2013-3-9,56.3,44.3,32.5,39.9,35.2,29.3,96,73,36,30.40,30.14,6,1,10,0.00
2013-3-10,46.8,42.5,36.8,41.8,38.3,33.4,92,85,76,30.40,30.33,2,0,6,0.02
2013-3-11,53.9,46.6,40.9,46.0,42.4,39.3,95,86,66,30.35,30.09,2,0,6,0.05
2013-3-12,55.3,52.8,49.2,49.8,47.5,45.0,92,82,69,30.06,29.99,10,6,20,0.01
2013-3-13,53.5,51.7,49.9,51.0,48.7,46.6,95,89,81,30.11,30.01,9,3,20,0.09
2013-3-14,54.2,50.6,48.0,49.9,47.3,43.9,96,89,73,30.06,29.94,9,2,16,0.07
2013-3-15,58.3,52.4,48.5,50.7,47.8,45.3,95,85,69,30.12,30.05,9,4,15,0.00
2013-3-16,50.4,46.7,41.1,44.8,40.9,34.3,91,80,67,30.05,29.80,19,8,35,0.16
2013-3-17,47.6,42.8,39.9,35.5,33.8,32.2,82,71,57,30.11,29.90,14,7,27,0.00
2013-3-18,53.5,44.7,40.1,37.6,33.7,29.3,80,67,41,30.14,30.04,9,5,19,0.00
2013-3-19,56.3,42.1,34.3,40.2,35.5,25.2,92,79,30,30.13,29.52,5,1,8,0.24
2013-3-20,50.2,45.7,40.2,48.4,40.4,32.0,94,82,68,29.92,29.30,22,10,38,0.31
2013-3-21,48.5,40.8,33.8,37.1,33.7,31.5,95,76,54,30.12,29.93,13,5,22,0.22
2013-3-22,48.0,39.5,34.3,34.9,31.3,25.3,95,74,42,30.28,30.13,4,1,8,0.00
2013-3-23,51.7,41.6,33.1,32.8,28.2,23.3,85,62,36,30.31,30.20,3,0,10,0.00
2013-3-24,55.6,42.3,31.9,33.9,29.5,26.2,86,63,36,30.21,30.03,2,1,7,0.00
2013-3-25,62.3,50.0,37.8,34.8,29.8,25.2,70,48,27,30.03,29.83,5,1,11,0.00
2013-3-26,61.6,52.9,46.5,40.4,38.0,35.1,72,58,37,29.92,29.86,4,1,11,0.00
2013-3-27,58.9,51.6,46.5,48.2,42.1,38.8,81,70,55,29.87,29.84,1,0,6,0.03
2013-3-28,61.6,53.6,45.4,48.8,45.9,43.0,96,77,54,30.04,29.92,7,1,12,0.03
2013-3-29,65.2,53.0,45.5,47.2,43.6,40.9,89,73,41,30.15,30.05,6,1,10,0.00
2013-3-30,66.8,54.8,42.1,46.2,43.7,39.9,93,69,45,30.16,29.98,7,3,17,0.00
2013-3-31,70.9,56.8,43.9,45.4,43.1,41.5,92,64,38,29.97,29.81,3,1,8,0.00
2013-4-1,64.2,55.0,47.4,49.1,46.5,41.3,92,74,55,30.06,29.87,5,2,14,0.00
2013-4-2,55.3,52.4,48.9,47.9,46.0,44.9,87,79,70,30.11,30.06,6,1,14,0.00
2013-4-3,63.7,55.8,46.2,47.2,44.8,41.9,91,68,48,30.09,29.87,2,1,7,0.00
2013-4-4,57.0,53.2,49.5,53.7,49.2,45.9,96,86,76,29.83,29.55,6,2,14,0.20
2013-4-5,56.9,52.7,48.8,50.6,49.0,46.3,95,88,72,29.78,29.64,9,5,24,0.50
2013-4-6,53.2,48.5,44.5,46.9,44.5,41.6,93,86,70,29.85,29.63,8,4,22,0.47
2013-4-7,44.2,42.4,40.3,42.3,41.2,39.3,97,95,93,29.70,29.40,6,2,10,1.09
2013-4-8,57.6,48.6,41.9,44.8,42.5,40.3,96,81,58,30.18,29.85,6,2,8,0.02
2013-4-9,47.1,44.9,43.9,41.6,40.7,40.1,88,85,81,30.23,30.18,3,1,5,0.00
2013-4-10,58.4,53.2,48.3,50.5,44.4,40.1,94,73,58,30.15,29.85,15,7,20,0.29
2013-4-11,55.1,48.2,45.4,43.0,41.0,39.4,86,77,59,30.21,30.13,4,2,6,0.03
2013-4-13,40.8,40.6,40.3,39.0,38.7,38.4,94,93,92,29.91,29.89,1,1,3,0.20
2013-4-14,56.0,45.6,37.9,41.8,37.8,30.5,96,77,39,29.93,29.83,5,1,9,0.32
2013-4-15,58.1,46.5,38.8,40.6,38.4,35.2,93,76,43,30.08,29.86,5,1,6,0.07
2013-4-16,57.8,46.0,36.3,42.0,37.1,34.3,96,74,44,30.30,30.09,6,1,10,0.01
2013-4-17,62.1,49.8,37.5,41.1,36.3,28.1,86,63,28,30.36,30.30,7,2,10,0.00
2013-4-18,52.5,47.6,43.3,47.9,42.2,37.2,92,82,67,30.37,30.15,6,2,8,0.15
2013-4-19,55.7,50.9,48.2,52.4,48.7,46.3,95,92,84,30.13,29.97,10,5,10,0.53
2013-4-20,55.3,50.3,47.4,47.8,44.1,42.0,92,80,66,30.19,30.12,10,5,14,0.01
2013-4-21,53.3,47.9,43.9,46.2,41.7,37.8,90,79,65,30.26,30.14,5,2,6,0.16
2013-4-22,61.0,50.0,37.6,41.3,35.3,26.5,94,62,27,30.43,30.27,9,3,12,0.00
2013-4-23,64.2,51.4,36.9,40.2,33.7,26.4,88,56,24,30.32,30.14,8,2,11,0.00
2013-4-24,70.4,56.3,40.2,42.7,37.1,31.8,86,53,25,30.23,29.96,6,1,7,0.00
2013-4-25,73.2,59.3,43.1,43.4,37.6,31.6,80,48,26,30.04,29.95,3,0,6,0.00
2013-4-26,69.6,58.6,46.8,48.8,45.7,42.1,93,65,39,30.16,30.04,6,1,9,0.00
2013-4-27,58.0,54.4,51.6,49.1,42.6,34.1,86,66,42,30.13,30.07,8,3,8,0.04
2013-4-28,60.1,53.1,48.6,49.1,44.1,39.0,88,73,50,30.12,29.87,13,5,14,0.02
2013-4-29,55.7,48.7,42.6,47.3,39.6,33.3,92,73,45,30.08,29.82,9,3,17,0.17
2013-4-30,57.3,48.4,39.9,37.0,33.5,28.4,84,59,34,30.34,30.08,4,1,8,0.00
2013-5-1,65.6,52.4,36.5,38.5,33.7,28.8,85,53,25,30.48,30.34,4,1,11,0.00
2013-5-2,70.8,57.4,44.2,42.7,39.6,36.1,81,54,33,30.44,30.26,5,2,8,0.00
2013-5-3,70.8,60.7,48.0,49.1,43.6,38.6,80,55,41,30.29,30.12,6,3,11,0.00
2013-5-4,76.8,64.5,49.5,50.4,44.4,37.3,82,52,24,30.13,29.89,9,3,11,0.00
2013-5-5,82.2,70.7,51.9,48.2,44.2,41.2,77,42,24,29.89,29.67,7,3,15,0.00
2013-5-6,86.5,69.4,52.6,49.1,45.1,41.1,77,45,21,29.75,29.64,3,1,6,0.00
2013-5-7,71.5,61.5,52.8,53.8,50.6,48.2,87,69,50,29.91,29.72,5,2,7,0.00
2013-5-8,68.3,58.5,52.2,52.0,50.0,47.9,89,75,55,30.05,29.92,3,1,5,0.00
2013-5-9,72.0,60.1,49.6,54.4,50.7,47.7,93,73,46,30.13,30.02,4,1,4,0.00
2013-5-10,80.7,67.1,50.8,55.8,52.2,48.6,93,62,34,30.10,30.01,4,0,7,0.00
2013-5-11,82.4,68.7,55.7,57.9,49.5,42.0,70,52,33,30.08,29.89,5,1,6,0.00
2013-5-12,73.0,64.6,57.8,58.7,56.5,54.6,93,76,53,30.01,29.93,3,1,6,0.19
2013-5-13,65.5,56.8,49.9,57.4,51.5,41.4,94,83,64,30.09,29.84,15,4,22,0.22
2013-5-14,67.1,56.8,47.0,44.1,39.2,31.9,83,56,28,30.14,30.02,5,1,12,0.00
2013-5-15,68.4,55.4,46.4,51.2,45.3,40.2,93,71,45,30.03,29.92,4,0,4,0.04
2013-5-16,72.1,61.9,52.3,53.9,50.3,44.4,94,70,39,29.93,29.76,6,2,12,0.01
2013-5-17,63.4,57.0,53.3,51.7,49.6,45.5,93,77,54,29.97,29.87,4,2,7,0.06
2013-5-18,63.1,57.1,52.3,50.4,47.0,45.0,84,70,54,30.17,29.98,7,1,11,0.00
2013-5-19,66.0,59.2,53.3,51.0,48.9,46.6,87,70,52,30.30,30.18,4,1,5,0.00
2013-5-20,69.6,58.2,49.5,50.3,47.7,45.2,91,70,42,30.25,29.80,4,1,11,0.00
2013-5-21,61.3,52.6,46.1,48.4,44.8,40.7,94,76,50,29.80,29.69,10,3,12,0.39
2013-5-22,52.9,47.3,42.3,47.9,44.4,41.0,96,90,77,29.85,29.77,4,1,7,0.36
2013-5-23,58.6,50.3,45.1,47.9,45.6,43.5,95,84,59,29.93,29.84,6,1,8,0.12
2013-5-24,64.5,54.4,48.2,49.1,46.3,43.3,94,76,47,29.97,29.88,3,1,6,0.01
2013-5-25,66.6,57.1,49.6,48.2,46.4,44.5,90,70,47,29.96,29.88,3,1,6,0.01
2013-5-26,67.1,57.1,52.0,53.6,50.6,47.5,93,80,58,29.90,29.85,3,0,6,0.05
2013-5-27,60.4,55.7,50.7,55.6,52.4,49.1,95,89,77,29.88,29.62,2,0,6,0.23
2013-5-28,61.8,55.8,52.3,53.6,50.5,48.5,92,83,67,29.80,29.69,5,1,6,0.09
2013-5-29,60.4,55.2,49.5,53.0,48.6,45.8,95,80,62,29.88,29.60,10,2,18,0.11
2013-5-30,63.1,55.4,48.6,48.5,46.0,43.8,86,72,54,30.15,29.89,9,3,13,0.01
2013-5-31,67.6,59.4,51.3,48.6,45.8,41.5,85,63,39,30.25,30.15,2,0,3,0.00
2013-6-1,74.7,62.8,52.2,50.1,47.1,43.8,82,59,34,30.15,29.95,8,1,8,0.00
2013-6-2,71.3,63.0,54.1,51.6,49.0,45.6,87,62,41,30.00,29.95,5,1,8,0.01
2013-6-3,74.6,62.4,50.7,53.8,50.5,47.6,89,67,42,30.03,29.96,3,1,6,0.00
2013-6-4,80.5,68.3,53.1,55.8,51.8,48.2,87,59,33,30.03,29.92,4,1,8,0.00
2013-6-5,79.2,69.1,56.2,56.4,51.9,45.2,75,55,39,29.99,29.92,6,2,11,0.00
2013-6-6,81.2,69.5,56.5,55.5,50.5,44.0,81,54,30,29.96,29.90,3,1,8,0.00
2013-6-7,73.0,63.1,56.7,54.8,48.4,42.2,71,59,42,30.04,29.93,8,2,8,0.00
2013-6-8,69.9,61.5,55.3,51.6,49.1,46.1,75,64,50,30.09,30.00,4,1,5,0.00
2013-6-9,70.4,62.2,53.9,50.5,47.3,43.8,77,59,46,30.02,29.92,6,2,8,0.00
2013-6-10,72.5,61.8,51.0,48.6,45.5,42.6,74,56,37,29.94,29.78,7,2,8,0.00
2013-6-11,68.3,59.4,51.0,46.4,44.9,42.8,78,60,42,30.01,29.85,10,5,14,0.00
2013-6-12,70.8,59.8,53.5,50.1,46.5,44.0,82,63,39,30.06,30.01,9,3,12,0.00
2013-6-13,69.9,60.6,52.9,50.3,48.5,43.6,90,67,40,30.13,30.05,4,1,8,0.01
2013-6-14,70.3,60.1,54.4,49.8,47.9,45.6,77,65,46,30.14,29.96,8,2,8,0.00
2013-6-15,77.6,66.2,51.6,54.0,50.1,46.7,88,59,34,29.96,29.82,4,1,10,0.00
2013-6-16,75.6,66.1,56.0,55.7,51.9,49.1,81,61,46,30.00,29.90,5,2,11,0.00
2013-6-17,78.1,66.2,57.8,54.3,51.2,47.2,86,61,35,30.00,29.80,10,1,12,0.05
2013-6-18,75.3,65.2,57.2,53.9,49.5,41.7,85,60,30,29.89,29.78,9,2,11,0.00
2013-6-19,70.4,60.6,54.2,54.0,50.0,47.8,83,69,46,29.91,29.83,6,2,9,0.02
2013-6-20,62.3,57.6,54.4,53.9,50.2,48.2,90,77,61,30.02,29.87,9,4,12,0.07
2013-6-21,69.3,61.1,53.2,53.4,51.4,48.9,95,73,49,30.07,30.01,2,0,3,0.01
2013-6-22,79.6,68.0,52.2,54.9,52.0,49.9,92,61,37,30.02,29.75,2,0,5,0.00
2013-6-23,72.5,66.3,61.3,62.9,58.7,55.2,94,77,66,29.75,29.50,1,0,3,0.16
2013-6-24,70.9,62.8,57.0,59.2,55.6,52.3,96,79,54,29.61,29.49,7,1,7,0.07
2013-6-25,75.4,62.6,56.3,60.7,55.8,51.3,95,81,44,29.77,29.58,6,1,6,0.68
2013-6-26,73.7,64.1,57.2,62.3,57.7,54.9,95,81,59,29.98,29.75,7,1,7,0.17
2013-6-27,72.1,65.3,60.5,64.8,60.6,56.4,95,85,68,30.10,29.95,1,0,5,0.07
2013-6-28,89.5,75.7,62.9,64.6,62.4,59.0,94,67,36,30.09,29.94,5,0,6,0.00
2013-6-29,86.1,76.3,67.1,62.7,59.5,55.9,78,58,39,30.00,29.88,2,0,2,0.00
2013-6-30,92.9,79.8,64.0,65.7,61.9,56.9,88,58,31,29.91,29.74,3,0,6,0.00
2013-7-1,90.1,80.7,68.1,65.1,61.9,58.9,79,55,37,29.90,29.80,3,1,6,0.00
2013-7-2,83.0,73.6,63.2,61.4,56.8,48.6,81,58,33,30.00,29.92,6,1,10,0.00
2013-7-3,81.2,72.3,62.1,54.6,49.8,42.8,59,46,34,30.04,29.93,3,2,7,0.00
2013-7-4,74.4,66.5,59.5,54.1,53.0,51.3,79,62,48,30.03,29.93,3,1,5,0.00
2013-7-5,74.4,66.0,58.3,55.1,53.4,52.4,81,65,49,29.95,29.86,2,0,4,0.00
2013-7-6,80.1,68.5,55.4,57.2,54.1,50.0,91,63,35,29.89,29.77,4,1,7,0.00
2013-7-7,76.7,66.9,58.6,58.9,56.1,53.0,87,69,48,29.86,29.79,3,1,8,0.00
2013-7-8,79.8,66.0,56.7,58.4,54.4,51.8,84,68,42,30.00,29.86,2,0,2,0.00
2013-7-9,85.5,74.0,59.6,57.9,55.3,49.8,87,55,34,30.01,29.89,4,1,12,0.00
2013-7-10,74.2,65.1,58.1,56.0,53.8,51.5,84,68,53,29.98,29.85,2,0,5,0.00
2013-7-11,72.3,62.7,55.1,50.8,47.8,45.8,74,60,40,29.99,29.90,5,1,12,0.00
2013-7-12,69.4,61.4,54.7,52.6,48.6,44.7,76,63,53,30.00,29.92,3,0,5,0.00
2013-7-13,77.9,66.3,51.9,52.6,49.7,44.6,89,59,31,30.11,30.00,6,2,13,0.00
2013-7-14,82.4,70.0,53.3,52.0,47.1,42.2,82,48,25,30.04,29.88,4,1,8,0.00
2013-7-15,80.7,70.7,57.8,55.9,50.2,45.3,76,50,35,29.95,29.79,8,3,12,0.00
2013-7-16,86.3,75.4,60.9,57.4,52.2,45.3,73,46,30,29.79,29.69,6,1,11,0.00
2013-7-17,72.5,66.5,60.7,58.4,55.5,52.4,82,68,50,30.09,29.78,3,1,7,0.01
2013-7-18,78.6,67.5,57.6,57.8,55.3,52.5,84,67,46,30.13,30.02,3,1,6,0.00
2013-7-19,80.9,68.7,57.6,60.0,57.1,54.4,90,69,46,30.07,29.93,4,1,5,0.00
2013-7-20,77.7,66.1,58.0,59.2,56.5,54.4,89,73,52,30.00,29.86,2,0,6,0.00
2013-7-21,76.8,65.6,56.6,58.8,56.2,53.4,91,73,52,29.89,29.81,3,1,7,0.00
2013-7-22,79.4,66.9,57.6,59.2,56.3,54.4,92,71,45,29.97,29.85,2,0,6,0.00
2013-7-23,85.7,73.1,58.4,59.2,55.6,49.7,91,59,30,29.97,29.86,4,1,8,0.00
2013-7-24,85.3,74.0,59.6,57.3,52.9,44.3,83,51,27,29.95,29.88,3,1,7,0.00
2013-7-25,85.5,72.6,56.9,55.7,51.0,46.5,82,50,26,30.00,29.92,3,1,5,0.00
2013-7-26,85.1,71.8,57.2,55.4,48.7,38.8,76,48,22,30.05,29.96,5,1,7,0.00
2013-7-27,79.2,69.2,56.6,53.3,50.1,42.6,79,53,34,30.07,29.89,3,1,6,0.00
2013-7-28,71.1,62.3,54.2,55.3,52.3,50.3,88,71,55,29.94,29.87,5,2,12,0.00
2013-7-29,75.8,64.7,56.5,55.1,52.6,50.7,81,66,46,29.92,29.85,3,0,6,0.00
2013-7-30,78.3,67.2,56.0,57.7,54.5,51.6,87,66,44,30.04,29.91,3,1,8,0.00
2013-7-31,70.3,63.9,57.6,59.9,56.9,54.5,91,79,65,30.03,29.90,3,0,4,0.00
2013-8-1,68.9,62.6,56.7,55.9,54.3,53.2,89,75,62,29.98,29.94,4,2,5,0.00
2013-8-2,63.2,61.2,59.5,58.6,55.6,53.0,92,82,72,30.04,29.97,2,1,6,0.03
2013-8-3,75.8,66.3,59.6,60.8,58.4,56.8,95,77,55,30.03,29.95,2,0,6,0.02
2013-8-4,82.8,71.4,60.1,60.9,58.2,55.9,87,65,45,29.96,29.84,3,1,6,0.00
2013-8-5,86.1,73.7,60.2,60.3,57.4,52.3,90,60,32,29.91,29.82,2,0,6,0.00
2013-8-6,85.9,74.0,58.3,58.7,55.0,47.9,86,55,27,29.91,29.80,2,0,7,0.00
2013-8-7,85.9,73.2,58.4,58.3,54.9,50.7,85,56,31,29.92,29.83,3,1,7,0.00
2013-8-8,83.0,70.0,58.4,59.6,56.7,54.7,88,65,42,29.94,29.83,3,1,5,0.00
2013-8-9,83.0,72.6,59.6,58.7,56.1,54.1,85,58,38,29.85,29.74,6,1,7,0.00
2013-8-10,80.9,69.9,59.9,61.9,59.8,56.3,93,72,50,29.91,29.80,4,1,6,0.04
2013-8-11,77.6,69.4,59.2,57.2,55.5,53.2,81,62,48,29.97,29.89,4,1,8,0.00
2013-8-12,79.4,69.6,60.5,57.0,54.4,52.5,79,60,42,29.98,29.90,4,1,11,0.00
2013-8-13,82.2,71.1,58.0,58.1,54.1,47.7,83,58,30,30.00,29.82,3,1,6,0.00
2013-8-14,83.0,68.2,59.2,62.1,57.1,53.3,91,70,36,29.88,29.81,4,0,6,0.03
2013-8-15,70.1,66.8,63.7,65.9,63.4,61.6,94,89,82,29.90,29.82,1,0,1,0.04
2013-8-16,84.0,72.9,63.5,63.8,59.7,49.8,94,67,31,29.91,29.84,3,1,8,0.00
2013-8-17,80.7,71.4,64.2,59.5,56.6,52.3,72,60,46,29.97,29.91,5,1,16,0.00
2013-8-18,79.9,70.1,61.2,57.8,55.9,51.8,79,62,44,30.03,29.97,4,2,8,0.00
2013-8-19,80.9,69.7,61.3,57.5,54.5,50.7,79,60,42,30.01,29.95,5,1,8,0.00
2013-8-20,78.1,68.9,59.3,55.6,50.9,47.0,69,54,41,30.06,29.97,5,2,10,0.00
2013-8-21,81.4,69.5,54.8,55.6,52.1,48.0,82,56,35,29.99,29.83,5,2,10,0.00
2013-8-22,84.7,73.0,58.7,55.8,53.6,50.3,80,53,35,29.84,29.70,3,0,5,0.00
2013-8-23,74.7,67.5,61.8,56.7,55.4,52.0,81,66,52,29.80,29.73,6,2,11,0.00
2013-8-24,76.7,68.0,60.9,57.4,54.2,46.8,87,64,36,29.82,29.75,4,1,7,0.00
2013-8-25,73.9,65.7,58.9,57.3,53.2,48.7,78,65,50,29.84,29.77,3,0,5,0.00
2013-8-26,77.9,66.8,60.7,59.7,56.9,50.0,88,72,43,29.86,29.76,6,1,8,0.04
2013-8-27,80.1,69.9,61.8,61.1,58.3,56.6,88,69,47,29.86,29.68,3,0,7,0.16
2013-8-28,79.2,69.8,61.2,64.3,60.9,58.1,96,75,52,29.79,29.73,1,0,2,0.16
2013-8-29,73.2,67.0,63.9,66.6,63.9,61.6,95,90,73,29.92,29.76,4,1,12,0.46
2013-8-30,78.8,69.1,61.0,62.4,57.4,51.8,93,70,40,30.06,29.92,3,1,12,0.27
2013-8-31,81.1,68.9,56.9,59.4,56.6,54.3,93,68,42,29.98,29.74,4,1,8,0.00
2013-9-1,81.4,70.5,59.2,59.6,57.2,53.6,90,65,44,29.80,29.70,3,1,6,0.00
2013-9-2,82.0,72.1,61.2,58.9,56.3,53.8,82,59,41,29.84,29.76,4,0,7,0.00
2013-9-3,73.9,66.8,62.0,63.7,60.5,56.7,95,81,55,29.92,29.83,2,0,5,0.12
2013-9-4,70.9,65.7,60.9,61.4,59.7,58.3,94,81,70,29.95,29.90,3,1,5,0.02
2013-9-5,69.9,63.9,60.9,61.2,59.7,58.2,95,87,73,29.95,29.84,4,1,7,0.42
2013-9-6,72.3,63.5,60.1,62.8,60.3,59.1,97,90,69,30.02,29.86,5,1,12,0.80
2013-9-7,74.6,66.5,61.6,61.7,59.6,58.3,92,79,59,30.02,29.91,2,0,5,0.00
2013-9-8,78.3,68.1,58.9,61.9,59.1,56.9,95,75,51,30.01,29.92,2,0,5,0.00
2013-9-9,77.2,67.2,59.3,61.5,59.2,57.0,94,77,55,29.98,29.88,2,0,6,0.00
2013-9-10,78.8,68.2,59.2,62.5,60.1,57.2,96,77,56,29.90,29.78,4,1,10,0.00
2013-9-11,89.7,74.3,60.5,63.6,60.5,57.3,94,66,34,29.84,29.76,1,0,6,0.00
2013-9-12,78.8,68.8,60.9,62.1,60.3,58.3,93,76,52,29.91,29.80,2,0,5,0.00
2013-9-13,67.1,63.0,60.4,60.4,59.5,58.7,95,89,78,29.88,29.83,1,0,4,0.00
2013-9-14,71.8,66.2,61.6,61.7,60.3,59.3,92,82,69,29.76,29.64,1,0,1,0.02
2013-9-15,66.3,61.9,59.2,62.0,59.6,58.1,96,92,81,29.73,29.62,3,0,6,0.11
2013-9-16,70.9,63.0,59.6,59.4,56.9,51.7,91,81,61,29.83,29.73,6,2,12,0.01
2013-9-17,63.4,59.7,57.0,52.6,50.8,48.7,85,73,62,29.84,29.78,1,0,1,0.00
2013-9-18,72.3,61.0,55.4,53.7,51.4,48.5,88,72,43,29.98,29.84,2,0,5,0.00
2013-9-19,80.5,62.6,49.1,53.3,50.0,46.1,92,67,34,29.94,29.67,2,0,6,0.00
2013-9-20,74.6,61.4,51.6,57.2,52.3,49.3,94,75,42,29.67,29.50,5,1,6,0.06
2013-9-21,73.0,63.2,56.2,57.6,53.5,47.6,95,73,42,29.62,29.56,2,1,8,0.01
2013-9-22,62.7,57.8,54.5,56.3,52.7,48.7,92,83,66,29.66,29.49,6,2,14,0.33
2013-9-23,60.1,56.2,52.9,55.4,52.2,50.0,92,86,73,29.87,29.66,5,1,7,0.16
2013-9-24,63.5,53.9,48.0,50.0,48.3,46.1,95,83,56,29.87,29.75,4,0,8,0.02
2013-9-25,61.0,52.4,48.0,50.2,48.5,46.0,95,87,64,29.94,29.76,1,0,7,0.08
2013-9-26,64.2,51.9,42.6,50.1,46.2,41.5,97,83,53,30.04,29.95,2,0,3,0.00
2013-9-27,57.5,53.8,49.4,53.0,49.1,45.6,91,84,75,30.04,29.77,6,1,6,0.06
2013-9-28,60.2,55.8,52.2,58.2,53.5,48.8,96,92,84,29.76,29.26,17,3,17,1.77
2013-9-29,55.3,53.2,51.6,52.4,48.9,46.7,93,86,73,29.48,29.07,12,5,18,0.64
2013-9-30,55.4,51.3,48.0,51.6,47.6,43.8,94,87,78,29.84,29.36,10,5,13,0.74
2013-10-1,56.2,50.5,46.8,49.5,46.2,43.6,95,85,69,30.03,29.83,7,3,8,0.38
2013-10-2,54.7,51.0,48.6,49.2,47.1,45.6,96,87,73,30.06,29.97,6,1,6,0.31
2013-10-3,57.5,51.1,46.4,49.1,47.1,44.5,97,87,64,30.35,30.09,0,0,0,0.07
2013-10-4,64.3,50.2,39.1,48.2,44.5,38.1,97,83,53,30.39,30.26,0,0,0,0.00
2013-10-5,70.1,54.6,43.6,51.1,46.9,42.5,96,78,46,30.26,30.04,0,0,0,0.00
2013-10-6,73.7,56.9,43.3,52.2,46.8,42.1,97,74,34,30.03,29.78,6,0,6,0.10
2013-10-7,61.0,55.3,52.9,51.8,48.5,44.1,94,79,54,29.92,29.81,9,4,16,0.12
2013-10-8,55.4,51.5,46.2,47.4,45.4,42.4,93,80,64,29.98,29.87,5,2,10,0.23
2013-10-9,60.1,48.2,38.8,45.7,42.6,37.8,96,82,56,30.05,29.87,1,0,1,0.00
2013-10-10,60.5,51.2,45.1,50.9,46.7,43.3,96,85,62,29.98,29.85,3,0,5,0.03
2013-10-11,57.6,52.5,50.1,50.8,48.8,45.5,97,88,67,30.05,29.98,2,0,2,0.27
2013-10-12,58.3,51.5,47.7,49.4,47.7,45.5,97,87,70,30.11,29.98,4,1,6,0.07
2013-10-13,58.7,48.7,42.2,47.6,45.0,41.1,97,88,64,30.27,30.12,1,0,5,0.01
2013-10-14,60.5,47.3,37.8,47.7,42.9,36.8,97,86,61,30.34,30.27,3,0,6,0.00
2013-10-15,59.6,48.8,40.5,48.4,44.8,39.7,97,87,64,30.29,30.08,2,0,3,0.00
2013-10-16,53.3,49.1,45.1,48.2,46.3,44.0,97,90,80,30.11,30.06,4,1,5,0.00
2013-10-17,57.2,49.9,45.5,48.8,46.3,43.9,95,88,71,30.18,30.11,2,0,4,0.00
2013-10-18,57.5,47.8,43.5,49.6,45.5,42.4,98,92,73,30.15,30.06,2,0,3,0.01
2013-10-19,49.1,47.0,45.7,47.4,46.0,44.6,98,96,92,30.10,30.05,1,0,3,0.01
2013-10-20,50.2,47.2,44.5,46.2,45.0,43.3,96,92,85,30.11,30.06,2,0,3,0.00
2013-10-21,53.8,47.7,44.3,48.3,45.6,43.5,97,93,81,30.08,30.00,3,0,5,0.00
2013-10-22,56.9,48.3,44.2,49.8,46.3,43.7,98,93,77,30.02,29.94,1,0,3,0.00
2013-10-23,56.7,48.5,44.9,50.3,46.8,44.4,98,94,76,29.97,29.89,1,0,1,0.01
2013-10-24,50.7,47.2,43.3,49.4,46.3,42.5,98,97,92,30.03,29.93,1,0,2,0.00
2013-10-25,52.5,48.7,45.7,48.8,46.8,44.4,97,93,86,30.22,30.04,4,0,4,0.01
2013-10-26,51.7,48.8,43.8,46.2,45.1,43.0,97,87,79,30.24,30.10,4,1,5,0.00
2013-10-27,52.9,48.5,45.7,48.1,45.5,43.4,96,90,81,30.10,29.81,5,1,16,0.05
2013-10-28,56.5,49.1,43.3,45.0,38.4,32.4,96,69,42,29.85,29.80,7,2,17,0.00
2013-10-29,56.0,45.8,34.3,38.0,35.4,32.2,92,69,46,29.95,29.84,4,1,10,0.00
2013-10-30,57.3,46.8,36.9,45.9,39.5,34.5,91,77,59,30.03,29.94,6,1,24,0.02
2013-10-31,55.3,51.5,48.2,51.2,48.0,42.4,93,88,73,30.16,30.01,3,0,9,0.02
2013-11-1,63.1,55.2,51.3,51.7,49.7,47.1,95,82,58,30.18,29.76,1,0,6,0.00
2013-11-2,54.5,50.8,46.7,51.1,44.5,38.3,97,80,65,29.79,29.41,27,11,56,0.40
2013-11-3,53.2,45.3,41.6,40.5,38.5,35.0,90,78,51,30.02,29.79,6,2,14,0.01
2013-11-4,49.8,43.6,36.9,39.8,37.5,35.4,96,80,58,30.09,29.97,0,0,0,0.02
2013-11-5,54.1,48.8,43.8,50.0,44.1,39.0,97,84,70,30.15,29.92,8,2,9,0.08
2013-11-6,52.6,48.2,44.3,47.4,44.5,42.4,95,87,73,30.22,29.94,2,0,7,0.10
2013-11-7,50.5,48.6,47.4,47.5,45.9,44.2,95,90,79,29.93,29.63,15,7,21,0.89
2013-11-8,53.5,49.4,44.2,44.6,42.9,40.9,88,79,66,30.07,29.89,7,3,10,0.01
2013-11-9,50.2,45.0,39.9,45.6,42.6,38.6,97,91,77,30.06,29.98,0,0,0,0.07
2013-11-10,50.2,47.2,44.8,45.3,44.4,43.2,97,90,82,30.05,29.99,4,2,7,0.00
2013-11-11,56.3,49.2,42.9,46.6,43.2,38.8,97,81,53,30.07,29.90,2,1,4,0.00
2013-11-12,58.1,51.9,46.2,52.5,48.6,42.8,96,89,78,30.28,29.93,5,1,8,0.12
2013-11-13,56.6,53.1,50.1,49.1,47.1,44.9,91,81,68,30.34,30.22,12,4,12,0.00
2013-11-14,50.1,46.7,41.6,46.9,44.4,40.5,96,92,83,30.21,29.98,3,1,5,0.04
2013-11-15,48.2,44.6,41.6,44.8,41.8,39.8,97,90,82,29.97,29.23,15,6,19,0.16
2013-11-16,47.6,44.6,40.3,41.8,37.5,36.0,87,76,64,29.67,29.27,13,4,14,0.00
2013-11-17,50.8,46.8,43.3,47.4,43.1,37.2,95,87,75,29.81,29.68,8,4,14,0.16
2013-11-18,52.3,49.5,47.1,50.0,48.0,45.7,97,94,87,29.82,29.47,5,2,10,0.81
2013-11-19,53.5,44.6,39.1,51.2,39.1,23.1,95,82,51,29.96,29.47,8,2,11,0.11
2013-11-20,42.9,36.7,32.4,29.8,26.6,21.9,84,67,44,30.40,29.98,5,1,6,0.00
2013-11-21,43.5,34.2,27.5,30.1,26.2,22.4,92,74,44,30.57,30.41,3,1,8,0.01
2013-11-22,45.5,36.5,30.4,30.6,27.7,25.4,87,72,45,30.55,30.36,5,2,8,0.00
2013-11-23,49.2,37.6,28.7,36.4,30.9,26.4,92,78,50,30.35,30.10,3,0,3,0.00
2013-11-24,49.4,37.0,29.1,38.7,33.4,27.8,96,87,62,30.16,30.08,0,0,2,0.00
2013-11-25,52.0,39.6,31.2,38.7,35.0,29.9,96,85,57,30.22,30.16,2,0,3,0.01
2013-11-26,51.1,40.3,30.7,40.0,35.6,29.7,97,84,61,30.18,30.01,3,0,3,0.01
2013-11-27,53.9,46.2,39.5,41.8,39.1,36.1,93,77,60,30.00,29.86,3,0,3,0.00
2013-11-28,47.4,39.5,34.9,43.3,37.9,33.9,97,94,84,30.09,29.93,1,0,2,0.00
2013-11-29,48.2,43.6,36.5,45.4,41.0,35.5,96,91,82,30.22,30.08,4,1,6,0.01
2013-11-30,51.3,48.3,43.9,47.6,43.9,42.0,94,85,78,30.24,30.02,7,3,7,0.10
2013-12-1,53.8,51.2,45.7,50.6,46.9,37.5,96,85,73,30.01,29.67,24,13,29,0.06
2013-12-2,44.6,40.1,35.5,36.8,33.0,30.8,94,76,60,29.95,29.69,19,3,22,0.07
2013-12-3,38.5,34.9,29.5,35.2,25.8,22.2,95,70,52,30.21,29.96,5,2,7,0.02
2013-12-4,37.2,29.6,24.7,25.2,22.5,20.5,88,75,54,30.26,30.21,2,0,3,0.00
2013-12-5,32.8,27.3,22.1,24.7,19.1,11.6,87,72,48,30.23,30.09,3,0,4,0.00
2013-12-6,30.7,27.1,21.3,11.0,6.6,4.6,54,42,33,30.13,30.04,4,1,7,0.00
2013-12-7,29.3,22.3,17.8,11.9,6.2,1.4,65,51,31,30.33,30.14,3,1,4,0.00
2013-12-8,31.5,23.4,15.7,15.6,12.4,8.4,76,63,45,30.49,30.33,1,0,3,0.00
2013-12-9,32.8,26.7,18.6,24.8,17.9,13.3,81,70,54,30.50,30.40,1,0,2,0.00
2013-12-10,39.3,34.4,30.9,32.2,28.8,24.2,88,80,75,30.41,30.32,2,0,2,0.00
2013-12-11,39.9,32.5,26.7,33.1,29.3,24.9,95,88,75,30.33,30.08,1,0,1,0.00
2013-12-12,41.2,36.0,30.0,40.3,34.6,29.1,97,95,78,30.08,29.95,5,1,5,0.19
2013-12-13,48.2,45.0,40.6,46.5,43.4,39.5,97,94,86,30.32,30.05,5,1,7,0.04
2013-12-14,48.5,45.2,41.9,43.5,42.1,40.3,96,89,79,30.34,30.24,5,2,6,0.00
2013-12-15,52.5,49.0,45.7,47.2,45.8,42.2,96,89,81,30.35,30.23,8,2,10,0.02
2013-12-16,47.1,44.0,37.9,44.6,42.2,37.1,97,93,84,30.40,30.18,2,0,3,0.07
2013-12-17,46.0,41.3,37.9,42.4,39.0,37.1,98,92,80,30.18,30.02,7,1,9,0.01
2013-12-18,45.1,41.2,36.5,42.8,38.1,31.5,96,89,77,30.07,29.93,5,1,5,0.05
2013-12-19,38.2,33.6,29.5,32.4,28.3,25.1,91,81,59,30.25,30.05,2,0,3,0.01
2013-12-20,44.1,36.1,30.7,43.3,33.9,26.1,97,92,83,30.12,29.62,9,2,9,0.19
2013-12-21,45.4,43.1,40.1,44.9,42.4,39.3,98,97,97,30.07,29.74,5,1,10,0.22
2013-12-22,49.1,47.5,44.8,48.6,46.8,44.0,98,97,95,30.20,30.07,8,3,10,0.23
2013-12-23,52.5,48.8,44.3,48.2,43.9,38.7,94,84,63,30.41,30.05,17,6,17,0.04
2013-12-24,46.5,41.5,34.6,39.2,37.2,32.8,93,85,72,30.52,30.41,2,0,2,0.00
2013-12-25,41.5,36.1,32.1,37.0,33.7,31.1,97,91,77,30.44,30.31,1,0,2,0.00
2013-12-26,43.1,36.6,34.0,38.0,34.7,32.5,97,93,81,30.31,30.12,1,0,3,0.01
2013-12-27,45.2,38.0,30.7,43.2,36.6,29.7,98,95,87,30.23,30.05,7,1,7,0.02
2013-12-28,47.1,41.9,35.5,41.9,39.1,33.9,95,90,81,30.41,30.38,1,0,2,0.00
2013-12-29,43.3,38.4,33.4,38.8,36.4,32.6,98,93,83,30.39,30.21,2,0,2,0.00
2013-12-30,46.0,41.2,37.8,40.6,38.8,36.6,97,91,80,30.22,30.04,11,1,11,0.01
2013-12-31,46.0,44.2,40.1,44.9,41.5,38.4,97,90,77,30.28,30.10,4,0,5,0.04
2014-1-1,42.6,40.3,37.6,41.8,39.5,36.8,98,97,95,30.31,30.16,1,0,2,0.01
2014-1-2,49.2,45.1,41.9,45.0,42.3,40.6,97,90,77,30.15,29.81,9,2,18,0.52